createdAt,value
2019-02-14T00:00:24.848Z,41.37
2019-02-14T00:02:54.201Z,37.63
2019-02-14T00:05:23.497Z,44.73
2019-02-14T00:07:52.800Z,45.40
2019-02-14T00:10:22.393Z,35.10
2019-02-14T00:12:51.679Z,43.35
2019-02-14T00:15:21.014Z,40.85
2019-02-14T00:17:50.317Z,42.40
2019-02-14T00:20:19.607Z,40.90
2019-02-14T00:22:49.051Z,39.33
2019-02-14T00:25:18.442Z,40.17
2019-02-14T00:27:47.724Z,45.92
2019-02-14T00:30:17.249Z,42.83
2019-02-14T00:32:46.501Z,42.53
2019-02-14T00:35:15.892Z,42.17
2019-02-14T00:37:45.292Z,46.58
2019-02-14T00:40:14.580Z,43.28
2019-02-14T00:42:43.941Z,49.27
2019-02-14T00:45:13.380Z,36.35
2019-02-14T00:47:42.673Z,35.60
2019-02-14T00:50:11.961Z,40.05
2019-02-14T00:52:41.508Z,44.13
2019-02-14T00:55:10.874Z,47.78
2019-02-14T00:57:40.182Z,46.35
2019-02-14T01:00:09.988Z,49.67
2019-02-14T01:02:39.315Z,41.55
2019-02-14T01:05:08.805Z,42.88
2019-02-14T01:07:38.192Z,37.40
2019-02-14T01:10:07.505Z,35.23
2019-02-14T01:12:36.805Z,41.25
2019-02-14T01:15:07.789Z,41.30
2019-02-14T01:17:37.172Z,40.17
2019-02-14T01:20:06.779Z,40.45
2019-02-14T01:22:36.126Z,44.15
2019-02-14T01:25:05.658Z,43.73
2019-02-14T01:27:34.964Z,40.20
2019-02-14T01:30:04.475Z,45.48
2019-02-14T01:32:33.785Z,45.73
2019-02-14T01:35:03.153Z,42.70
2019-02-14T01:37:32.473Z,45.67
2019-02-14T01:40:01.781Z,43.98
2019-02-14T01:42:31.174Z,45.67
2019-02-14T01:45:00.505Z,47.85
2019-02-14T01:47:29.912Z,48.75
2019-02-14T01:49:59.291Z,48.68
2019-02-14T01:52:28.613Z,41.48
2019-02-14T01:54:57.898Z,44.00
2019-02-14T01:57:27.185Z,39.30
2019-02-14T01:59:56.641Z,44.55
2019-02-14T02:02:26.024Z,45.05
2019-02-14T02:04:55.414Z,42.62
2019-02-14T02:07:24.795Z,49.67
2019-02-14T02:09:54.174Z,46.00
2019-02-14T02:12:23.484Z,50.90
2019-02-14T02:14:52.950Z,41.23
2019-02-14T02:17:22.262Z,38.50
2019-02-14T02:19:51.562Z,39.48
2019-02-14T02:22:20.865Z,42.95
2019-02-14T02:24:50.198Z,39.00
2019-02-14T02:27:19.502Z,46.33
2019-02-14T02:29:48.889Z,41.77
2019-02-14T02:32:18.278Z,47.75
2019-02-14T02:34:47.640Z,43.98
2019-02-14T02:37:16.944Z,47.88
2019-02-14T02:39:46.246Z,42.78
2019-02-14T02:42:15.626Z,44.70
2019-02-14T02:44:45.024Z,42.10
2019-02-14T02:47:14.298Z,45.92
2019-02-14T02:49:43.630Z,46.98
2019-02-14T02:52:13.022Z,38.15
2019-02-14T02:54:42.331Z,45.48
2019-02-14T02:57:11.651Z,47.10
2019-02-14T02:59:41.237Z,48.83
2019-02-14T03:02:10.593Z,44.95
2019-02-14T03:04:39.880Z,48.10
2019-02-14T03:07:09.598Z,49.50
2019-02-14T03:09:38.880Z,52.43
2019-02-14T03:12:08.181Z,52.03
2019-02-14T03:14:37.506Z,51.00
2019-02-14T03:17:06.801Z,49.33
2019-02-14T03:19:36.301Z,47.48
2019-02-14T03:22:05.700Z,59.20
2019-02-14T03:24:35.102Z,48.25
2019-02-14T03:27:04.429Z,45.48
2019-02-14T03:29:33.745Z,51.45
2019-02-14T03:32:03.114Z,61.77
2019-02-14T03:34:32.484Z,59.42
2019-02-14T03:37:01.870Z,55.92
2019-02-14T03:39:31.165Z,65.50
2019-02-14T03:42:00.447Z,64.03
2019-02-14T03:44:29.924Z,60.92
2019-02-14T03:46:59.217Z,58.10
2019-02-14T03:49:28.610Z,58.20
2019-02-14T03:51:57.987Z,61.35
2019-02-14T03:54:27.343Z,65.25
2019-02-14T03:56:56.638Z,65.12
2019-02-14T03:59:25.959Z,61.85
2019-02-14T04:01:55.318Z,59.85
2019-02-14T04:04:24.597Z,61.23
2019-02-14T04:06:53.937Z,56.42
2019-02-14T04:09:23.219Z,53.45
2019-02-14T04:11:52.576Z,55.70
2019-02-14T04:14:21.913Z,53.40
2019-02-14T04:16:51.197Z,57.88
2019-02-14T04:19:20.597Z,58.75
2019-02-14T04:21:50.069Z,62.07
2019-02-14T04:24:19.381Z,68.67
2019-02-14T04:26:51.673Z,63.07
2019-02-14T04:29:21.177Z,78.80
2019-02-14T04:31:50.473Z,115.37
2019-02-14T04:34:19.767Z,123.80
2019-02-14T04:36:49.095Z,121.20
2019-02-14T04:39:18.460Z,138.67
2019-02-14T04:41:47.826Z,125.37
2019-02-14T04:44:17.200Z,73.28
2019-02-14T04:46:46.530Z,70.10
2019-02-14T04:49:15.896Z,68.57
2019-02-14T04:51:45.201Z,72.27
2019-02-14T04:54:14.573Z,65.17
2019-02-14T04:56:43.961Z,74.07
2019-02-14T04:59:13.364Z,70.20
2019-02-14T05:01:42.766Z,65.57
2019-02-14T05:04:12.212Z,60.77
2019-02-14T05:06:44.333Z,62.93
2019-02-14T05:09:12.700Z,73.07
2019-02-14T05:11:42.017Z,69.43
2019-02-14T05:14:11.406Z,64.80
2019-02-14T05:16:40.734Z,58.93
2019-02-14T05:19:10.107Z,61.03
2019-02-14T05:21:39.574Z,62.40
2019-02-14T05:24:08.891Z,60.23
2019-02-14T05:26:38.237Z,58.07
2019-02-14T05:29:07.628Z,66.20
2019-02-14T05:31:37.610Z,53.77
2019-02-14T05:34:07.052Z,53.43
2019-02-14T05:36:36.693Z,58.13
2019-02-14T05:39:07.277Z,62.90
2019-02-14T05:41:36.575Z,62.13
2019-02-14T05:44:05.981Z,63.00
2019-02-14T05:46:35.361Z,57.40
2019-02-14T05:49:04.697Z,62.20
2019-02-14T05:51:34.105Z,58.97
2019-02-14T05:54:03.520Z,61.20
2019-02-14T05:56:32.912Z,62.53
2019-02-14T05:59:02.395Z,54.90
2019-02-14T06:01:31.699Z,61.63
2019-02-14T06:04:01.013Z,61.30
2019-02-14T06:06:30.471Z,60.33
2019-02-14T06:08:59.784Z,56.30
2019-02-14T06:11:29.184Z,58.93
2019-02-14T06:13:58.630Z,58.03
2019-02-14T06:16:27.918Z,55.50
2019-02-14T06:18:57.253Z,59.17
2019-02-14T06:21:26.683Z,62.00
2019-02-14T06:23:56.085Z,56.00
2019-02-14T06:26:25.421Z,61.60
2019-02-14T06:28:54.822Z,62.23
2019-02-14T06:31:24.200Z,62.50
2019-02-14T06:33:53.466Z,62.27
2019-02-14T06:36:22.852Z,62.60
2019-02-14T06:38:52.136Z,59.00
2019-02-14T06:41:21.601Z,55.03
2019-02-14T06:43:51.124Z,56.50
2019-02-14T06:46:20.421Z,53.20
2019-02-14T06:48:49.707Z,57.37
2019-02-14T06:51:19.180Z,52.10
2019-02-14T06:53:48.507Z,66.23
2019-02-14T06:56:17.873Z,69.60
2019-02-14T06:58:47.305Z,62.17
2019-02-14T07:01:16.721Z,64.93
2019-02-14T07:03:46.005Z,66.70
2019-02-14T07:06:15.389Z,62.40
2019-02-14T07:08:44.821Z,61.83
2019-02-14T07:11:14.153Z,54.50
2019-02-14T07:13:43.740Z,61.73
2019-02-14T07:16:13.027Z,68.83
2019-02-14T07:18:42.392Z,63.20
2019-02-14T07:21:11.701Z,65.57
2019-02-14T07:23:40.998Z,66.83
2019-02-14T07:26:10.355Z,59.53
2019-02-14T07:28:39.881Z,64.47
2019-02-14T07:31:09.185Z,58.87
2019-02-14T07:33:38.541Z,59.67
2019-02-14T07:36:08.218Z,59.63
2019-02-14T07:38:37.521Z,56.83
2019-02-14T07:41:06.823Z,55.40
2019-02-14T07:43:36.311Z,56.33
2019-02-14T07:46:05.611Z,51.37
2019-02-14T07:48:34.985Z,50.67
2019-02-14T07:51:04.482Z,55.47
2019-02-14T07:53:33.869Z,53.87
2019-02-14T07:56:03.270Z,54.03
2019-02-14T07:58:32.699Z,64.80
2019-02-14T08:01:02.041Z,47.17
2019-02-14T08:03:31.467Z,50.07
2019-02-14T08:06:00.787Z,56.40
2019-02-14T08:08:30.161Z,55.43
2019-02-14T08:10:59.529Z,52.93
2019-02-14T08:13:28.949Z,60.63
2019-02-14T08:15:58.233Z,62.73
2019-02-14T08:18:27.518Z,53.83
2019-02-14T08:20:56.945Z,56.53
2019-02-14T08:23:26.221Z,45.47
2019-02-14T08:25:55.521Z,54.38
2019-02-14T08:28:25.309Z,44.67
2019-02-14T08:30:54.679Z,46.95
2019-02-14T08:33:23.961Z,46.88
2019-02-14T08:35:53.299Z,40.58
2019-02-14T08:38:22.634Z,41.80
2019-02-14T08:40:51.944Z,44.10
2019-02-14T08:43:21.282Z,41.15
2019-02-14T08:45:50.565Z,45.65
2019-02-14T08:48:19.921Z,49.23
2019-02-14T08:50:49.261Z,42.13
2019-02-14T08:53:18.662Z,45.52
2019-02-14T08:55:47.945Z,48.85
2019-02-14T08:58:17.280Z,45.30
2019-02-14T09:00:46.580Z,44.63
2019-02-14T09:03:15.964Z,41.37
2019-02-14T09:05:45.309Z,41.50
2019-02-14T09:08:14.672Z,45.83
2019-02-14T09:10:44.052Z,39.30
2019-02-14T09:13:17.241Z,46.95
2019-02-14T09:15:44.314Z,38.10
2019-02-14T09:18:13.665Z,34.13
2019-02-14T09:20:42.992Z,34.78
2019-02-14T09:23:12.372Z,33.13
2019-02-14T09:25:41.656Z,32.10
2019-02-14T09:28:11.058Z,34.60
2019-02-14T09:30:40.453Z,36.42
2019-02-14T09:33:09.813Z,31.85
2019-02-14T09:35:39.256Z,34.78
2019-02-14T09:38:08.571Z,34.92
2019-02-14T09:40:38.104Z,38.08
2019-02-14T09:43:07.423Z,36.03
2019-02-14T09:45:36.774Z,34.13
2019-02-14T09:48:06.078Z,31.80
2019-02-14T09:50:35.389Z,26.17
2019-02-14T09:53:04.674Z,24.10
2019-02-14T09:55:34.024Z,27.80
2019-02-14T09:58:03.599Z,30.00
2019-02-14T10:00:32.881Z,24.30
2019-02-14T10:03:02.178Z,23.55
2019-02-14T10:05:31.608Z,23.85
2019-02-14T10:08:00.922Z,28.47
2019-02-14T10:10:30.261Z,23.07
2019-02-14T10:12:59.813Z,26.35
2019-02-14T10:15:29.104Z,23.85
2019-02-14T10:17:58.468Z,24.20
2019-02-14T10:20:27.817Z,25.02
2019-02-14T10:22:57.133Z,26.45
2019-02-14T10:25:26.454Z,23.30
2019-02-14T10:27:55.749Z,26.20
2019-02-14T10:30:25.155Z,25.97
2019-02-14T10:32:54.482Z,21.42
2019-02-14T10:35:23.870Z,24.30
2019-02-14T10:37:53.197Z,25.45
2019-02-14T10:40:22.477Z,24.47
2019-02-14T10:42:51.786Z,28.77
2019-02-14T10:45:21.114Z,25.57
2019-02-14T10:47:50.470Z,23.02
2019-02-14T10:50:19.784Z,24.52
2019-02-14T10:52:49.159Z,21.90
2019-02-14T10:55:18.541Z,23.32
2019-02-14T10:57:47.886Z,19.05
2019-02-14T11:00:19.870Z,22.42
2019-02-14T11:02:50.527Z,21.02
2019-02-14T11:05:20.766Z,22.45
2019-02-14T11:07:50.231Z,20.43
2019-02-14T11:10:19.544Z,23.45
2019-02-14T11:12:48.837Z,17.23
2019-02-14T11:15:19.474Z,16.95
2019-02-14T11:17:49.199Z,21.00
2019-02-14T11:20:18.782Z,19.57
2019-02-14T11:22:48.929Z,20.90
2019-02-14T11:25:24.785Z,16.67
2019-02-14T11:27:54.078Z,19.98
2019-02-14T11:30:23.441Z,16.15
2019-02-14T11:32:52.800Z,20.27
2019-02-14T11:35:22.113Z,22.15
2019-02-14T11:37:51.443Z,18.20
2019-02-14T11:40:20.779Z,19.27
2019-02-14T11:42:50.131Z,20.82
2019-02-14T11:45:19.899Z,14.78
2019-02-14T11:47:49.486Z,16.75
2019-02-14T11:50:18.832Z,14.87
2019-02-14T11:52:48.194Z,13.78
2019-02-14T11:55:17.502Z,16.57
2019-02-14T11:57:46.933Z,14.55
2019-02-14T12:00:21.149Z,15.85
2019-02-14T12:02:55.441Z,19.17
2019-02-14T12:05:21.372Z,17.35
2019-02-14T12:07:50.674Z,14.98
2019-02-14T12:10:19.997Z,16.60
2019-02-14T12:12:49.464Z,17.07
2019-02-14T12:15:18.878Z,14.13
2019-02-14T12:17:48.176Z,15.05
2019-02-14T12:20:17.549Z,12.18
2019-02-14T12:22:47.416Z,12.47
2019-02-14T12:25:17.014Z,13.93
2019-02-14T12:27:46.317Z,11.18
2019-02-14T12:30:16.153Z,12.45
2019-02-14T12:32:45.534Z,14.63
2019-02-14T12:35:14.896Z,12.43
2019-02-14T12:37:44.201Z,8.83
2019-02-14T12:40:13.587Z,13.55
2019-02-14T12:42:42.931Z,9.78
2019-02-14T12:45:20.210Z,11.75
2019-02-14T12:47:44.677Z,10.13
2019-02-14T12:50:14.007Z,12.58
2019-02-14T12:52:43.588Z,13.90
2019-02-14T12:55:13.057Z,9.53
2019-02-14T12:57:42.417Z,10.55
2019-02-14T13:00:15.323Z,13.75
2019-02-14T13:02:44.633Z,14.55
2019-02-14T13:05:13.932Z,13.95
2019-02-14T13:07:43.384Z,12.05
2019-02-14T13:10:12.981Z,10.38
2019-02-14T13:12:42.301Z,11.50
2019-02-14T13:15:14.118Z,15.90
2019-02-14T13:17:43.473Z,10.55
2019-02-14T13:20:12.786Z,9.98
2019-02-14T13:22:42.101Z,12.37
2019-02-14T13:25:12.036Z,11.35
2019-02-14T13:27:41.318Z,9.73
2019-02-14T13:30:13.427Z,14.20
2019-02-14T13:32:42.799Z,13.35
2019-02-14T13:35:12.103Z,10.20
2019-02-14T13:37:41.584Z,13.45
2019-02-14T13:40:10.989Z,14.10
2019-02-14T13:42:40.279Z,13.50
2019-02-14T13:45:11.856Z,14.80
2019-02-14T13:47:41.153Z,15.85
2019-02-14T13:50:11.455Z,11.95
2019-02-14T13:52:40.994Z,12.63
2019-02-14T13:55:10.823Z,12.80
2019-02-14T13:57:40.593Z,12.00
2019-02-14T14:00:19.502Z,13.18
2019-02-14T14:02:48.921Z,13.83
2019-02-14T14:05:18.602Z,16.12
2019-02-14T14:07:47.973Z,12.35
2019-02-14T14:10:17.382Z,11.50
2019-02-14T14:12:46.952Z,13.72
2019-02-14T14:15:16.401Z,13.53
2019-02-14T14:17:45.701Z,17.15
2019-02-14T14:20:15.014Z,14.20
2019-02-14T14:22:44.407Z,8.90
2019-02-14T14:25:13.697Z,11.33
2019-02-14T14:27:43.204Z,11.25
2019-02-14T14:30:13.146Z,12.73
2019-02-14T14:32:42.429Z,11.95
2019-02-14T14:35:11.768Z,12.33
2019-02-14T14:37:41.136Z,10.55
2019-02-14T14:40:11.513Z,12.13
2019-02-14T14:43:05.815Z,12.03
2019-02-14T14:46:09.781Z,14.15
2019-02-14T14:48:41.410Z,10.85
2019-02-14T14:51:10.789Z,16.55
2019-02-14T14:53:41.120Z,13.40
2019-02-14T14:56:10.755Z,13.30
2019-02-14T14:58:40.039Z,17.30
2019-02-14T15:01:09.428Z,14.53
2019-02-14T15:03:40.693Z,14.75
2019-02-14T15:06:09.985Z,14.23
2019-02-14T15:08:39.300Z,13.70
2019-02-14T15:11:08.707Z,12.58
2019-02-14T15:13:38.030Z,13.93
2019-02-14T15:16:07.402Z,16.25
2019-02-14T15:18:36.739Z,14.47
2019-02-14T15:21:06.027Z,14.98
2019-02-14T15:23:35.380Z,14.10
2019-02-14T15:26:04.690Z,14.95
2019-02-14T15:28:34.178Z,18.73
2019-02-14T15:31:03.685Z,17.60
2019-02-14T15:33:32.999Z,27.65
2019-02-14T15:36:02.431Z,21.77
2019-02-14T15:38:32.621Z,22.40
2019-02-14T15:41:02.751Z,21.62
2019-02-14T15:43:32.142Z,27.10
2019-02-14T15:46:01.447Z,27.17
2019-02-14T15:48:33.298Z,20.10
2019-02-14T15:51:02.714Z,25.35
2019-02-14T15:53:32.120Z,23.60
2019-02-14T15:56:03.268Z,27.00
2019-02-14T15:58:33.069Z,24.25
2019-02-14T16:01:02.524Z,24.92
2019-02-14T16:03:31.941Z,26.23
2019-02-14T16:06:01.868Z,30.17
2019-02-14T16:08:32.253Z,25.17
2019-02-14T16:11:01.602Z,28.77
2019-02-14T16:13:31.827Z,26.17
2019-02-14T16:16:01.897Z,29.65
2019-02-14T16:18:31.366Z,28.50
2019-02-14T16:21:00.715Z,27.60
2019-02-14T16:23:31.783Z,30.60
2019-02-14T16:26:01.046Z,26.20
2019-02-14T16:28:30.603Z,22.22
2019-02-14T16:30:59.993Z,26.77
2019-02-14T16:33:29.303Z,17.20
2019-02-14T16:35:58.645Z,17.20
2019-02-14T16:38:28.277Z,22.62
2019-02-14T16:40:57.740Z,19.85
2019-02-14T16:43:27.140Z,21.82
2019-02-14T16:45:56.554Z,19.23
2019-02-14T16:48:26.034Z,20.10
2019-02-14T16:50:55.344Z,20.65
2019-02-14T16:53:24.659Z,23.77
2019-02-14T16:56:01.918Z,24.27
2019-02-14T16:58:24.974Z,28.52
2019-02-14T17:00:54.287Z,18.12
2019-02-14T17:03:23.665Z,22.42
2019-02-14T17:05:52.969Z,27.62
2019-02-14T17:08:22.417Z,29.42
2019-02-14T17:10:51.872Z,27.13
2019-02-14T17:13:21.401Z,28.62
2019-02-14T17:15:50.793Z,25.27
2019-02-14T17:18:20.199Z,37.70
2019-02-14T17:20:49.517Z,35.70
2019-02-14T17:23:18.809Z,25.37
2019-02-14T17:25:48.118Z,26.35
2019-02-14T17:28:17.925Z,30.10
2019-02-14T17:30:49.369Z,26.00
2019-02-14T17:33:20.147Z,24.60
2019-02-14T17:35:49.439Z,31.90
2019-02-14T17:38:18.763Z,31.90
2019-02-14T17:40:48.091Z,33.40
2019-02-14T17:43:17.454Z,31.68
2019-02-14T17:45:46.760Z,27.70
2019-02-14T17:48:16.090Z,32.98
2019-02-14T17:50:45.462Z,30.43
2019-02-14T17:53:14.856Z,34.40
2019-02-14T17:55:44.337Z,39.60
2019-02-14T17:58:13.649Z,36.73
2019-02-14T18:00:43.118Z,34.55
2019-02-14T18:03:12.411Z,40.20
2019-02-14T18:05:41.782Z,42.75
2019-02-14T18:08:11.089Z,59.48
2019-02-14T18:10:40.394Z,47.93
2019-02-14T18:13:10.389Z,46.37
2019-02-14T18:15:39.780Z,42.88
2019-02-14T18:18:09.195Z,43.55
2019-02-14T18:20:38.551Z,49.63
2019-02-14T18:23:07.833Z,41.58
2019-02-14T18:25:37.388Z,33.75
2019-02-14T18:28:06.749Z,31.75
2019-02-14T18:30:36.045Z,33.98
2019-02-14T18:33:05.446Z,39.42
2019-02-14T18:35:34.761Z,37.63
2019-02-14T18:38:04.060Z,32.40
2019-02-14T18:40:33.462Z,49.38
2019-02-14T18:43:02.759Z,38.23
2019-02-14T18:45:32.062Z,38.85
2019-02-14T18:48:01.393Z,35.88
2019-02-14T18:50:30.769Z,49.03
2019-02-14T18:53:00.045Z,48.87
2019-02-14T18:55:29.500Z,33.53
2019-02-14T18:57:58.813Z,37.17
2019-02-14T19:00:28.245Z,40.88
2019-02-14T19:02:57.762Z,38.83
2019-02-14T19:05:27.336Z,32.88
2019-02-14T19:07:56.639Z,30.20
2019-02-14T19:10:25.978Z,33.23
2019-02-14T19:12:55.271Z,37.00
2019-02-14T19:15:24.680Z,41.02
2019-02-14T19:17:54.217Z,33.73
2019-02-14T19:20:23.510Z,43.23
2019-02-14T19:22:52.806Z,34.13
2019-02-14T19:25:22.294Z,34.25
2019-02-14T19:27:51.598Z,40.23
2019-02-14T19:30:21.016Z,32.55
2019-02-14T19:32:50.482Z,37.65
2019-02-14T19:35:23.047Z,38.17
2019-02-14T19:37:50.809Z,30.70
2019-02-14T19:40:20.130Z,36.58
2019-02-14T19:42:49.443Z,35.52
2019-02-14T19:45:18.726Z,29.98
2019-02-14T19:47:48.091Z,30.12
2019-02-14T19:50:17.437Z,31.85
2019-02-14T19:52:46.841Z,32.15
2019-02-14T19:55:16.276Z,34.80
2019-02-14T19:57:46.053Z,29.25
2019-02-14T20:00:15.516Z,31.73
2019-02-14T20:02:45.139Z,33.92
2019-02-14T20:05:14.601Z,28.20
2019-02-14T20:07:44.865Z,26.68
2019-02-14T20:10:14.566Z,29.57
2019-02-14T20:12:43.951Z,25.75
2019-02-14T20:15:17.117Z,35.33
2019-02-14T20:17:46.564Z,36.08
2019-02-14T20:20:15.854Z,34.33
2019-02-14T20:22:45.277Z,34.88
2019-02-14T20:25:15.818Z,26.62
2019-02-14T20:27:45.189Z,33.58
2019-02-14T20:30:14.613Z,29.72
2019-02-14T20:32:43.953Z,29.48
2019-02-14T20:35:13.307Z,26.10
2019-02-14T20:37:42.634Z,27.40
2019-02-14T20:40:12.069Z,39.80
2019-02-14T20:42:41.368Z,28.73
2019-02-14T20:45:11.766Z,35.25
2019-02-14T20:47:41.055Z,31.77
2019-02-14T20:50:11.832Z,36.33
2019-02-14T20:52:41.213Z,28.35
2019-02-14T20:55:12.246Z,28.35
2019-02-14T20:57:41.597Z,30.80
2019-02-14T21:00:28.569Z,34.20
2019-02-14T21:02:57.915Z,31.00
2019-02-14T21:05:27.278Z,31.85
2019-02-14T21:07:56.881Z,32.98
2019-02-14T21:10:26.329Z,29.77
2019-02-14T21:12:55.613Z,34.55
2019-02-14T21:15:24.917Z,29.95
2019-02-14T21:17:54.328Z,27.30
2019-02-14T21:20:23.613Z,29.23
2019-02-14T21:22:52.997Z,29.85
2019-02-14T21:25:23.692Z,35.52
2019-02-14T21:27:53.597Z,31.40
2019-02-14T21:30:22.970Z,36.28
2019-02-14T21:32:52.277Z,28.17
2019-02-14T21:35:21.635Z,31.05
2019-02-14T21:37:50.985Z,28.15
2019-02-14T21:40:20.379Z,37.35
2019-02-14T21:42:49.853Z,30.75
2019-02-14T21:45:19.126Z,26.85
2019-02-14T21:47:48.421Z,28.07
2019-02-14T21:50:17.865Z,27.00
2019-02-14T21:52:47.557Z,34.45
2019-02-14T21:55:17.214Z,29.80
2019-02-14T21:57:47.155Z,33.63
2019-02-14T22:00:18.398Z,30.37
2019-02-14T22:02:47.822Z,33.53
2019-02-14T22:05:23.938Z,33.05
2019-02-14T22:07:49.396Z,32.73
2019-02-14T22:10:18.777Z,39.88
2019-02-14T22:12:48.274Z,29.42
2019-02-14T22:15:17.756Z,33.90
2019-02-14T22:17:47.044Z,27.80
2019-02-14T22:20:16.486Z,33.58
2019-02-14T22:22:45.862Z,31.40
2019-02-14T22:25:15.217Z,34.05
2019-02-14T22:27:44.806Z,30.60
2019-02-14T22:30:16.008Z,28.75
2019-02-14T22:32:45.585Z,25.62
2019-02-14T22:35:15.246Z,31.20
2019-02-14T22:37:44.570Z,29.02
2019-02-14T22:40:13.979Z,32.40
2019-02-14T22:42:47.186Z,31.70
2019-02-14T22:45:14.560Z,33.63
2019-02-14T22:47:44.774Z,35.43
2019-02-14T22:50:14.334Z,32.13
2019-02-14T22:52:43.619Z,31.75
2019-02-14T22:55:12.981Z,31.57
2019-02-14T22:57:42.663Z,34.70
2019-02-14T23:00:30.122Z,31.07
2019-02-14T23:02:59.497Z,28.12
2019-02-14T23:05:28.801Z,37.63
2019-02-14T23:07:58.174Z,29.77
2019-02-14T23:10:27.793Z,28.15
2019-02-14T23:12:57.190Z,27.27
2019-02-14T23:15:26.565Z,27.00
2019-02-14T23:17:56.105Z,33.15
2019-02-14T23:20:25.611Z,36.13
2019-02-14T23:22:54.969Z,29.30
2019-02-14T23:25:24.544Z,30.60
2019-02-14T23:27:53.856Z,32.83
2019-02-14T23:30:23.234Z,30.62
2019-02-14T23:32:52.577Z,33.40
2019-02-14T23:35:21.882Z,36.55
2019-02-14T23:37:51.280Z,33.95
2019-02-14T23:40:20.817Z,32.78
2019-02-14T23:42:50.176Z,37.80
2019-02-14T23:45:19.469Z,38.40
2019-02-14T23:47:48.781Z,36.05
2019-02-14T23:50:18.093Z,37.00
2019-02-14T23:52:47.465Z,36.98
2019-02-14T23:55:16.986Z,34.90
2019-02-14T23:57:46.304Z,30.43
